ADDS METAR Data INFO
IDs: Format: Raw Decoded Include TAF

Data at: 2113 UTC 19 Jul 2018

KLBT 192054Z AUTO 11006KT 10SM SCT070 32/17 A2999 RMK AO2 SLP153 T03170167 56015
KLBT 191954Z AUTO 05007KT 10SM CLR 32/16 A2999 RMK AO2 SLP154 T03220161
KLBT 191854Z AUTO VRB03KT 10SM CLR 32/17 A3002 RMK AO2 SLP163 T03220167
KLBT 191754Z AUTO 09004KT 10SM SCT100 32/16 A3003 RMK AO2 SLP168 T03170161 10317 20233 56007
KLBT 191654Z AUTO 09011KT 10SM CLR 31/16 A3004 RMK AO2 SLP170 T03060156
KLBT 191554Z AUTO 05010KT 10SM FEW100 31/17 A3004 RMK AO2 SLP171 T03060172
KLBT 191454Z AUTO 08008KT 10SM SCT100 29/18 A3005 RMK AO2 SLP175 T02890178 51012
KLBT 191354Z AUTO 10009KT 10SM CLR 27/19 A3005 RMK AO2 SLP173 T02720189
KLBT 191254Z AUTO 08006KT 10SM CLR 26/19 A3003 RMK AO2 SLP167 T02560189
KLBT 191154Z AUTO 06004KT 10SM CLR 23/19 A3002 RMK AO2 SLP163 70002 T02330194 10239 20211 53017
KLBT 191054Z AUTO 05004KT 10SM CLR 22/19 A3001 RMK AO2 SLP158 T02170189
KLBT 190954Z AUTO 04003KT 10SM CLR 21/19 A2998 RMK AO2 SLP150 T02110189
KLBT 190854Z AUTO 03004KT 10SM CLR 22/19 A2997 RMK AO2 SLP146 T02170194 53004
KLBT 190814Z AUTO 36004KT 10SM SCT005 22/20 A2996 RMK AO2 T02220200
KLBT 190806Z AUTO 03003KT 10SM BKN006 22/19 A2996 RMK AO2 T02220194
KLBT 190754Z AUTO 03004KT 10SM FEW006 22/19 A2996 RMK AO2 SLP143 T02220194
KLBT 190654Z AUTO 07004KT 10SM FEW006 23/19 A2996 RMK AO2 SLP142 T02280194
KLBT 190652Z AUTO 09003KT 10SM FEW006 23/19 A2996 RMK AO2
KLBT 190554Z AUTO 08003KT 10SM CLR 23/19 A2997 RMK AO2 SLP147 T02330189 10289 20233 50004
KLBT 190454Z AUTO 00000KT 10SM CLR 24/20 A2998 RMK AO2 SLP149 T02390200 403110233
KLBT 190354Z AUTO 05003KT 10SM CLR 24/21 A2996 RMK AO2 SLP142 T02440206
KLBT 190254Z AUTO 00000KT 10SM CLR 23/21 A2996 RMK AO2 SLP142 T02330211 53015
KLBT 190154Z AUTO 23003KT 10SM CLR 23/21 A2995 RMK AO2 SLP138 T02330211
KLBT 190054Z AUTO 00000KT 10SM CLR 26/21 A2992 RMK AO2 SLP130 T02560211
KLBT 182354Z AUTO 08004KT 10SM CLR 29/20 A2991 RMK AO2 SLP127 60000 T02890200 10311 20278 51006
KLBT 182254Z AUTO 07006KT 10SM CLR 31/21 A2991 RMK AO2 SLP127 T03060211
KLBT 182154Z AUTO 08006KT 10SM FEW046 30/22 A2990 RMK AO2 SLP123 T03000217
KLBT 182054Z AUTO 07004KT 10SM BKN044 30/22 A2990 RMK AO2 SLP121 60000 T03000217 56013
KLBT 181954Z AUTO 02006KT 10SM SCT036 31/22 A2990 RMK AO2 SLP123 T03060217
KLBT 181854Z AUTO 02006KT 10SM SCT029 OVC034 29/23 A2992 RMK AO2 RAB17E28 SLP131 P0000 T02940228
KLBT 181809Z AUTO 06004KT 10SM BKN024 OVC031 28/23 A2993 RMK AO2 T02830233
KLBT 181754Z AUTO 07003KT 10SM OVC031 28/23 A2993 RMK AO2 RAB14E42 SLP134 P0002 60002 T02780233 10278 20239 58003
KLBT 181654Z AUTO 06005KT 10SM OVC024 27/23 A2994 RMK AO2 SLP136 T02720228
KLBT 181554Z AUTO 02006KT 10SM BKN019 OVC025 27/23 A2995 RMK AO2 SLP140 T02720228
KLBT 181454Z AUTO 03009KT 10SM OVC017 27/23 A2994 RMK AO2 SLP138 T02720228 53008
KLBT 181405Z AUTO 02008KT 10SM OVC016 27/23 A2993 RMK AO2 T02720233
KLBT 181354Z AUTO 02007KT 10SM BKN013 27/23 A2993 RMK AO2 SLP133 T02720233
KLBT 181323Z AUTO 35007KT 10SM BKN011 27/23 A2993 RMK AO2 T02670233
KLBT 181254Z AUTO 32006KT 10SM FEW006 26/23 A2993 RMK AO2 SLP132 T02560233
KLBT 181154Z AUTO 25005KT 7SM SCT005 24/23 A2992 RMK AO2 SLP129 70054 T02390228 10239 20233 51014
KLBT 181152Z AUTO 25005KT 7SM SCT005 24/23 A2992 RMK AO2
KLBT 181113Z AUTO 25006KT 8SM BKN006 24/23 A2991 RMK AO2 T02390228
KLBT 181054Z AUTO 25007KT 8SM BKN005 23/23 A2990 RMK AO2 SLP124 T02330228
KLBT 181027Z AUTO 24005KT 7SM BKN005 23/22 A2989 RMK AO2 T02330222
KLBT 181006Z AUTO 23005KT 8SM FEW004 23/22 A2988 RMK AO2 T02330222
KLBT 180954Z AUTO 24004KT 8SM CLR 23/22 A2988 RMK AO2 SLP115 T02330222